sensor_id;sensor_type;location;lat;lon;timestamp;temperature;humidity
37050;DHT22;22958;51.232;6.826;2022-07-04T00:00:01;16.10;99.90
37050;DHT22;22958;51.232;6.826;2022-07-04T00:02:27;16.10;99.90
37050;DHT22;22958;51.232;6.826;2022-07-04T00:04:52;16.10;99.90
37050;DHT22;22958;51.232;6.826;2022-07-04T00:07:18;16.10;99.90
37050;DHT22;22958;51.232;6.826;2022-07-04T00:09:44;16.10;99.90
37050;DHT22;22958;51.232;6.826;2022-07-04T00:12:10;16.00;99.90
37050;DHT22;22958;51.232;6.826;2022-07-04T00:14:35;16.00;99.90
37050;DHT22;22958;51.232;6.826;2022-07-04T00:17:01;15.90;99.90
37050;DHT22;22958;51.232;6.826;2022-07-04T00:19:26;15.80;99.90
37050;DHT22;22958;51.232;6.826;2022-07-04T00:21:52;15.70;99.90
37050;DHT22;22958;51.232;6.826;2022-07-04T00:24:18;15.70;99.90
37050;DHT22;22958;51.232;6.826;2022-07-04T00:26:43;15.70;99.90
37050;DHT22;22958;51.232;6.826;2022-07-04T00:29:09;15.70;99.90
37050;DHT22;22958;51.232;6.826;2022-07-04T00:31:34;15.60;99.90
37050;DHT22;22958;51.232;6.826;2022-07-04T00:34:00;15.60;99.90
37050;DHT22;22958;51.232;6.826;2022-07-04T00:36:26;15.60;99.90
37050;DHT22;22958;51.232;6.826;2022-07-04T00:38:51;15.50;99.90
37050;DHT22;22958;51.232;6.826;2022-07-04T00:41:17;15.50;99.90
37050;DHT22;22958;51.232;6.826;2022-07-04T00:43:43;15.40;99.90
37050;DHT22;22958;51.232;6.826;2022-07-04T00:46:08;15.40;99.90
37050;DHT22;22958;51.232;6.826;2022-07-04T00:48:34;15.30;99.90
37050;DHT22;22958;51.232;6.826;2022-07-04T00:51:00;15.40;99.90
37050;DHT22;22958;51.232;6.826;2022-07-04T00:53:25;15.50;99.90
37050;DHT22;22958;51.232;6.826;2022-07-04T00:55:52;15.40;99.90
37050;DHT22;22958;51.232;6.826;2022-07-04T00:58:20;15.40;99.90
37050;DHT22;22958;51.232;6.826;2022-07-04T01:00:46;15.30;99.90
37050;DHT22;22958;51.232;6.826;2022-07-04T01:03:12;15.30;99.90
37050;DHT22;22958;51.232;6.826;2022-07-04T01:05:38;15.20;99.90
37050;DHT22;22958;51.232;6.826;2022-07-04T01:08:04;15.30;99.90
37050;DHT22;22958;51.232;6.826;2022-07-04T01:10:30;15.20;99.90
37050;DHT22;22958;51.232;6.826;2022-07-04T01:12:56;15.20;99.90
37050;DHT22;22958;51.232;6.826;2022-07-04T01:15:21;15.10;99.90
37050;DHT22;22958;51.232;6.826;2022-07-04T01:17:47;15.10;99.90
37050;DHT22;22958;51.232;6.826;2022-07-04T01:20:13;15.10;99.90
37050;DHT22;22958;51.232;6.826;2022-07-04T01:22:39;15.00;99.90
37050;DHT22;22958;51.232;6.826;2022-07-04T01:25:05;15.00;99.90
37050;DHT22;22958;51.232;6.826;2022-07-04T01:27:31;14.90;99.90
37050;DHT22;22958;51.232;6.826;2022-07-04T01:29:56;15.00;99.90
37050;DHT22;22958;51.232;6.826;2022-07-04T01:32:22;15.10;99.90
37050;DHT22;22958;51.232;6.826;2022-07-04T01:34:47;15.10;99.90
37050;DHT22;22958;51.232;6.826;2022-07-04T01:37:13;15.20;99.90
37050;DHT22;22958;51.232;6.826;2022-07-04T01:39:39;15.20;99.90
37050;DHT22;22958;51.232;6.826;2022-07-04T01:42:04;15.20;99.90
37050;DHT22;22958;51.232;6.826;2022-07-04T01:44:30;15.20;99.90
37050;DHT22;22958;51.232;6.826;2022-07-04T01:46:56;15.20;99.90
37050;DHT22;22958;51.232;6.826;2022-07-04T01:49:21;15.20;99.90
37050;DHT22;22958;51.232;6.826;2022-07-04T01:51:49;15.20;99.90
37050;DHT22;22958;51.232;6.826;2022-07-04T01:54:15;15.10;99.90
37050;DHT22;22958;51.232;6.826;2022-07-04T01:56:41;15.00;99.90
37050;DHT22;22958;51.232;6.826;2022-07-04T01:59:07;15.00;99.90
37050;DHT22;22958;51.232;6.826;2022-07-04T02:01:33;15.00;99.90
37050;DHT22;22958;51.232;6.826;2022-07-04T02:04:01;15.00;99.90
37050;DHT22;22958;51.232;6.826;2022-07-04T02:06:27;15.00;99.90
37050;DHT22;22958;51.232;6.826;2022-07-04T02:08:53;14.90;99.90
37050;DHT22;22958;51.232;6.826;2022-07-04T02:11:38;14.90;99.90
37050;DHT22;22958;51.232;6.826;2022-07-04T02:14:22;14.80;99.90
37050;DHT22;22958;51.232;6.826;2022-07-04T02:16:48;14.80;99.90
37050;DHT22;22958;51.232;6.826;2022-07-04T02:19:14;14.80;99.90
37050;DHT22;22958;51.232;6.826;2022-07-04T02:21:40;14.60;99.90
37050;DHT22;22958;51.232;6.826;2022-07-04T02:24:05;14.40;99.90
37050;DHT22;22958;51.232;6.826;2022-07-04T02:26:31;14.30;99.90
37050;DHT22;22958;51.232;6.826;2022-07-04T02:28:57;14.10;99.90
37050;DHT22;22958;51.232;6.826;2022-07-04T02:31:23;14.00;99.90
37050;DHT22;22958;51.232;6.826;2022-07-04T02:33:48;13.90;99.90
37050;DHT22;22958;51.232;6.826;2022-07-04T02:36:14;13.90;99.90
37050;DHT22;22958;51.232;6.826;2022-07-04T02:38:39;13.90;99.90
37050;DHT22;22958;51.232;6.826;2022-07-04T02:41:05;13.90;99.90
37050;DHT22;22958;51.232;6.826;2022-07-04T02:43:30;13.80;99.90
37050;DHT22;22958;51.232;6.826;2022-07-04T02:45:56;13.80;99.90
37050;DHT22;22958;51.232;6.826;2022-07-04T02:48:21;13.80;99.90
37050;DHT22;22958;51.232;6.826;2022-07-04T02:50:47;13.80;99.90
37050;DHT22;22958;51.232;6.826;2022-07-04T02:53:12;13.80;99.90
37050;DHT22;22958;51.232;6.826;2022-07-04T02:55:38;13.80;99.90
37050;DHT22;22958;51.232;6.826;2022-07-04T02:58:03;13.80;99.90
37050;DHT22;22958;51.232;6.826;2022-07-04T03:00:29;13.80;99.90
37050;DHT22;22958;51.232;6.826;2022-07-04T03:02:54;13.70;99.90
37050;DHT22;22958;51.232;6.826;2022-07-04T03:05:20;13.60;99.90
37050;DHT22;22958;51.232;6.826;2022-07-04T03:07:45;13.70;99.90
37050;DHT22;22958;51.232;6.826;2022-07-04T03:10:11;13.70;99.90
37050;DHT22;22958;51.232;6.826;2022-07-04T03:12:37;13.70;99.90
37050;DHT22;22958;51.232;6.826;2022-07-04T03:15:03;13.60;99.90
37050;DHT22;22958;51.232;6.826;2022-07-04T03:17:29;13.60;99.90
37050;DHT22;22958;51.232;6.826;2022-07-04T03:19:56;13.60;99.90
37050;DHT22;22958;51.232;6.826;2022-07-04T03:22:21;13.50;99.90
37050;DHT22;22958;51.232;6.826;2022-07-04T03:24:47;13.40;99.90
37050;DHT22;22958;51.232;6.826;2022-07-04T03:27:12;13.40;99.90
37050;DHT22;22958;51.232;6.826;2022-07-04T03:29:38;13.40;99.90
37050;DHT22;22958;51.232;6.826;2022-07-04T03:32:04;13.30;99.90
37050;DHT22;22958;51.232;6.826;2022-07-04T03:34:29;13.30;99.90
37050;DHT22;22958;51.232;6.826;2022-07-04T03:36:55;13.30;99.90
37050;DHT22;22958;51.232;6.826;2022-07-04T03:39:21;13.20;99.90
37050;DHT22;22958;51.232;6.826;2022-07-04T03:41:47;13.30;99.90
37050;DHT22;22958;51.232;6.826;2022-07-04T03:44:13;13.30;99.90
37050;DHT22;22958;51.232;6.826;2022-07-04T03:46:38;13.30;99.90
37050;DHT22;22958;51.232;6.826;2022-07-04T03:49:04;13.30;99.90
37050;DHT22;22958;51.232;6.826;2022-07-04T03:51:29;13.30;99.90
37050;DHT22;22958;51.232;6.826;2022-07-04T03:53:55;13.30;99.90
37050;DHT22;22958;51.232;6.826;2022-07-04T03:56:20;13.20;99.90
37050;DHT22;22958;51.232;6.826;2022-07-04T03:58:46;13.20;99.90
37050;DHT22;22958;51.232;6.826;2022-07-04T04:01:16;13.30;99.90
37050;DHT22;22958;51.232;6.826;2022-07-04T04:03:42;13.30;99.90
37050;DHT22;22958;51.232;6.826;2022-07-04T04:06:26;13.20;99.90
37050;DHT22;22958;51.232;6.826;2022-07-04T04:08:52;13.20;99.90
37050;DHT22;22958;51.232;6.826;2022-07-04T04:11:17;13.30;99.90
37050;DHT22;22958;51.232;6.826;2022-07-04T04:13:43;13.30;99.90
37050;DHT22;22958;51.232;6.826;2022-07-04T04:16:09;13.40;99.90
37050;DHT22;22958;51.232;6.826;2022-07-04T04:18:34;13.30;99.90
37050;DHT22;22958;51.232;6.826;2022-07-04T04:21:00;13.40;99.90
37050;DHT22;22958;51.232;6.826;2022-07-04T04:23:25;13.40;99.90
37050;DHT22;22958;51.232;6.826;2022-07-04T04:25:51;13.40;99.90
37050;DHT22;22958;51.232;6.826;2022-07-04T04:28:16;13.50;99.90
37050;DHT22;22958;51.232;6.826;2022-07-04T04:30:42;13.60;99.90
37050;DHT22;22958;51.232;6.826;2022-07-04T04:33:08;13.60;99.90
37050;DHT22;22958;51.232;6.826;2022-07-04T04:35:33;13.70;99.90
37050;DHT22;22958;51.232;6.826;2022-07-04T04:37:59;13.80;99.90
37050;DHT22;22958;51.232;6.826;2022-07-04T04:40:24;13.90;99.90
37050;DHT22;22958;51.232;6.826;2022-07-04T04:42:50;13.80;99.90
37050;DHT22;22958;51.232;6.826;2022-07-04T04:45:15;13.90;99.90
37050;DHT22;22958;51.232;6.826;2022-07-04T04:47:41;13.90;99.90
37050;DHT22;22958;51.232;6.826;2022-07-04T04:50:09;14.00;99.90
37050;DHT22;22958;51.232;6.826;2022-07-04T04:52:37;14.00;99.90
37050;DHT22;22958;51.232;6.826;2022-07-04T04:55:03;14.10;99.90
37050;DHT22;22958;51.232;6.826;2022-07-04T04:57:29;14.20;99.90
37050;DHT22;22958;51.232;6.826;2022-07-04T04:59:54;14.30;99.90
37050;DHT22;22958;51.232;6.826;2022-07-04T05:02:20;14.30;99.90
37050;DHT22;22958;51.232;6.826;2022-07-04T05:04:45;14.40;99.90
37050;DHT22;22958;51.232;6.826;2022-07-04T05:07:11;14.60;99.90
37050;DHT22;22958;51.232;6.826;2022-07-04T05:09:36;14.70;99.90
37050;DHT22;22958;51.232;6.826;2022-07-04T05:12:02;14.80;99.90
37050;DHT22;22958;51.232;6.826;2022-07-04T05:14:27;14.90;99.90
37050;DHT22;22958;51.232;6.826;2022-07-04T05:16:54;14.90;99.90
37050;DHT22;22958;51.232;6.826;2022-07-04T05:19:19;15.00;99.90
37050;DHT22;22958;51.232;6.826;2022-07-04T05:21:45;15.10;99.90
37050;DHT22;22958;51.232;6.826;2022-07-04T05:24:10;15.20;99.90
37050;DHT22;22958;51.232;6.826;2022-07-04T05:26:36;15.30;99.90
37050;DHT22;22958;51.232;6.826;2022-07-04T05:29:02;15.40;99.90
37050;DHT22;22958;51.232;6.826;2022-07-04T05:31:29;15.50;99.90
37050;DHT22;22958;51.232;6.826;2022-07-04T05:33:55;15.60;99.90
37050;DHT22;22958;51.232;6.826;2022-07-04T05:36:22;15.70;99.90
37050;DHT22;22958;51.232;6.826;2022-07-04T05:38:47;15.80;99.90
37050;DHT22;22958;51.232;6.826;2022-07-04T05:41:13;16.00;99.90
37050;DHT22;22958;51.232;6.826;2022-07-04T05:43:38;16.10;99.90
37050;DHT22;22958;51.232;6.826;2022-07-04T05:46:04;16.20;99.90
37050;DHT22;22958;51.232;6.826;2022-07-04T05:48:30;16.30;99.90
37050;DHT22;22958;51.232;6.826;2022-07-04T05:50:55;16.40;99.90
37050;DHT22;22958;51.232;6.826;2022-07-04T05:53:21;16.50;99.90
37050;DHT22;22958;51.232;6.826;2022-07-04T05:55:46;16.70;99.90
37050;DHT22;22958;51.232;6.826;2022-07-04T05:58:12;16.80;99.90
37050;DHT22;22958;51.232;6.826;2022-07-04T06:00:37;16.80;99.90
37050;DHT22;22958;51.232;6.826;2022-07-04T06:03:08;16.90;99.90
37050;DHT22;22958;51.232;6.826;2022-07-04T06:05:34;17.00;99.90
37050;DHT22;22958;51.232;6.826;2022-07-04T06:07:59;16.90;99.90
37050;DHT22;22958;51.232;6.826;2022-07-04T06:10:25;17.00;99.90
37050;DHT22;22958;51.232;6.826;2022-07-04T06:12:51;17.20;99.90
37050;DHT22;22958;51.232;6.826;2022-07-04T06:15:16;17.30;99.90
37050;DHT22;22958;51.232;6.826;2022-07-04T06:17:42;17.50;99.90
37050;DHT22;22958;51.232;6.826;2022-07-04T06:20:08;17.50;99.90
37050;DHT22;22958;51.232;6.826;2022-07-04T06:22:45;17.50;99.90
37050;DHT22;22958;51.232;6.826;2022-07-04T06:25:18;17.50;99.90
37050;DHT22;22958;51.232;6.826;2022-07-04T06:27:45;17.60;99.90
37050;DHT22;22958;51.232;6.826;2022-07-04T06:30:11;17.70;99.90
37050;DHT22;22958;51.232;6.826;2022-07-04T06:32:51;17.80;99.90
37050;DHT22;22958;51.232;6.826;2022-07-04T06:35:19;17.80;99.90
37050;DHT22;22958;51.232;6.826;2022-07-04T06:38:04;17.80;99.90
37050;DHT22;22958;51.232;6.826;2022-07-04T06:40:30;17.90;99.90
37050;DHT22;22958;51.232;6.826;2022-07-04T06:42:55;17.90;99.90
37050;DHT22;22958;51.232;6.826;2022-07-04T06:45:21;17.80;99.90
37050;DHT22;22958;51.232;6.826;2022-07-04T06:47:46;17.90;99.90
37050;DHT22;22958;51.232;6.826;2022-07-04T06:50:12;17.90;99.90
37050;DHT22;22958;51.232;6.826;2022-07-04T06:52:38;18.00;99.90
37050;DHT22;22958;51.232;6.826;2022-07-04T06:55:05;18.10;99.90
37050;DHT22;22958;51.232;6.826;2022-07-04T06:57:31;18.10;99.90
37050;DHT22;22958;51.232;6.826;2022-07-04T06:59:56;18.20;99.90
37050;DHT22;22958;51.232;6.826;2022-07-04T07:02:22;18.30;99.90
37050;DHT22;22958;51.232;6.826;2022-07-04T07:04:47;18.30;99.90
37050;DHT22;22958;51.232;6.826;2022-07-04T07:07:13;18.30;99.90
37050;DHT22;22958;51.232;6.826;2022-07-04T07:09:38;18.40;99.90
37050;DHT22;22958;51.232;6.826;2022-07-04T07:12:04;18.50;99.90
37050;DHT22;22958;51.232;6.826;2022-07-04T07:14:29;18.60;99.90
37050;DHT22;22958;51.232;6.826;2022-07-04T07:16:55;18.50;99.90
37050;DHT22;22958;51.232;6.826;2022-07-04T07:19:21;18.60;99.90
37050;DHT22;22958;51.232;6.826;2022-07-04T07:21:46;18.70;99.90
37050;DHT22;22958;51.232;6.826;2022-07-04T07:24:12;18.80;99.90
37050;DHT22;22958;51.232;6.826;2022-07-04T07:26:37;18.90;99.90
37050;DHT22;22958;51.232;6.826;2022-07-04T07:29:03;19.00;99.90
37050;DHT22;22958;51.232;6.826;2022-07-04T07:31:28;18.80;99.90
37050;DHT22;22958;51.232;6.826;2022-07-04T07:33:54;18.90;99.90
37050;DHT22;22958;51.232;6.826;2022-07-04T07:36:20;19.00;99.90
37050;DHT22;22958;51.232;6.826;2022-07-04T07:38:45;19.10;99.90
37050;DHT22;22958;51.232;6.826;2022-07-04T07:41:11;19.10;99.90
37050;DHT22;22958;51.232;6.826;2022-07-04T07:43:37;19.30;99.90
37050;DHT22;22958;51.232;6.826;2022-07-04T07:46:07;19.20;99.90
37050;DHT22;22958;51.232;6.826;2022-07-04T07:48:33;19.20;99.90
37050;DHT22;22958;51.232;6.826;2022-07-04T07:50:59;19.50;99.90
37050;DHT22;22958;51.232;6.826;2022-07-04T07:53:25;19.60;99.90
37050;DHT22;22958;51.232;6.826;2022-07-04T07:55:50;19.60;99.90
37050;DHT22;22958;51.232;6.826;2022-07-04T07:58:16;19.90;99.90
37050;DHT22;22958;51.232;6.826;2022-07-04T08:00:42;19.90;99.90
37050;DHT22;22958;51.232;6.826;2022-07-04T08:03:07;19.70;99.90
37050;DHT22;22958;51.232;6.826;2022-07-04T08:05:51;19.80;99.90
37050;DHT22;22958;51.232;6.826;2022-07-04T08:08:17;19.90;99.90
37050;DHT22;22958;51.232;6.826;2022-07-04T08:10:42;20.00;99.90
37050;DHT22;22958;51.232;6.826;2022-07-04T08:13:08;20.10;99.90
37050;DHT22;22958;51.232;6.826;2022-07-04T08:15:34;20.10;99.90
37050;DHT22;22958;51.232;6.826;2022-07-04T08:18:00;20.10;99.90
37050;DHT22;22958;51.232;6.826;2022-07-04T08:20:25;20.10;99.40
37050;DHT22;22958;51.232;6.826;2022-07-04T08:22:51;20.00;99.10
37050;DHT22;22958;51.232;6.826;2022-07-04T08:25:16;20.00;99.90
37050;DHT22;22958;51.232;6.826;2022-07-04T08:27:42;19.60;99.90
37050;DHT22;22958;51.232;6.826;2022-07-04T08:30:08;19.70;99.90
37050;DHT22;22958;51.232;6.826;2022-07-04T08:32:34;19.80;99.90
37050;DHT22;22958;51.232;6.826;2022-07-04T08:35:00;20.00;99.90
37050;DHT22;22958;51.232;6.826;2022-07-04T08:37:26;20.00;99.90
37050;DHT22;22958;51.232;6.826;2022-07-04T08:39:51;19.80;99.90
37050;DHT22;22958;51.232;6.826;2022-07-04T08:42:19;19.80;99.90
37050;DHT22;22958;51.232;6.826;2022-07-04T08:44:52;19.90;99.90
37050;DHT22;22958;51.232;6.826;2022-07-04T08:47:22;20.00;99.90
37050;DHT22;22958;51.232;6.826;2022-07-04T08:50:12;20.00;99.90
37050;DHT22;22958;51.232;6.826;2022-07-04T08:52:40;19.80;99.90
37050;DHT22;22958;51.232;6.826;2022-07-04T08:55:09;19.80;99.90
37050;DHT22;22958;51.232;6.826;2022-07-04T08:57:54;20.00;99.90
37050;DHT22;22958;51.232;6.826;2022-07-04T09:00:39;20.60;99.90
37050;DHT22;22958;51.232;6.826;2022-07-04T09:03:05;20.70;99.70
37050;DHT22;22958;51.232;6.826;2022-07-04T09:05:31;20.60;99.90
37050;DHT22;22958;51.232;6.826;2022-07-04T09:07:57;20.40;99.90
37050;DHT22;22958;51.232;6.826;2022-07-04T09:10:23;20.30;99.90
37050;DHT22;22958;51.232;6.826;2022-07-04T09:12:49;20.40;99.90
37050;DHT22;22958;51.232;6.826;2022-07-04T09:15:15;20.50;99.90
37050;DHT22;22958;51.232;6.826;2022-07-04T09:17:41;20.50;99.90
37050;DHT22;22958;51.232;6.826;2022-07-04T09:22:39;20.10;99.90
37050;DHT22;22958;51.232;6.826;2022-07-04T09:25:05;20.30;99.90
37050;DHT22;22958;51.232;6.826;2022-07-04T09:27:39;20.70;99.90
37050;DHT22;22958;51.232;6.826;2022-07-04T09:30:17;20.70;99.90
37050;DHT22;22958;51.232;6.826;2022-07-04T09:32:45;20.80;99.90
37050;DHT22;22958;51.232;6.826;2022-07-04T09:35:17;20.80;99.10
37050;DHT22;22958;51.232;6.826;2022-07-04T09:37:45;20.80;99.90
37050;DHT22;22958;51.232;6.826;2022-07-04T09:40:27;21.00;99.60
37050;DHT22;22958;51.232;6.826;2022-07-04T09:42:54;21.30;98.00
37050;DHT22;22958;51.232;6.826;2022-07-04T09:45:20;21.20;98.10
37050;DHT22;22958;51.232;6.826;2022-07-04T09:47:51;21.30;97.00
37050;DHT22;22958;51.232;6.826;2022-07-04T09:50:20;21.50;96.60
37050;DHT22;22958;51.232;6.826;2022-07-04T09:52:57;21.70;93.60
37050;DHT22;22958;51.232;6.826;2022-07-04T09:57:56;21.80;93.60
37050;DHT22;22958;51.232;6.826;2022-07-04T10:00:27;21.60;92.70
37050;DHT22;22958;51.232;6.826;2022-07-04T10:02:55;21.30;93.40
37050;DHT22;22958;51.232;6.826;2022-07-04T10:05:27;21.20;94.60
37050;DHT22;22958;51.232;6.826;2022-07-04T10:07:57;21.30;94.90
37050;DHT22;22958;51.232;6.826;2022-07-04T10:13:02;21.30;94.70
37050;DHT22;22958;51.232;6.826;2022-07-04T10:15:28;21.60;95.10
37050;DHT22;22958;51.232;6.826;2022-07-04T10:17:54;21.80;94.00
37050;DHT22;22958;51.232;6.826;2022-07-04T10:20:19;21.90;94.50
37050;DHT22;22958;51.232;6.826;2022-07-04T10:22:45;22.00;94.00
37050;DHT22;22958;51.232;6.826;2022-07-04T10:25:11;21.40;94.30
37050;DHT22;22958;51.232;6.826;2022-07-04T10:27:37;21.50;95.40
37050;DHT22;22958;51.232;6.826;2022-07-04T10:30:06;21.70;94.50
37050;DHT22;22958;51.232;6.826;2022-07-04T10:32:34;21.50;94.30
37050;DHT22;22958;51.232;6.826;2022-07-04T10:35:00;21.20;94.70
37050;DHT22;22958;51.232;6.826;2022-07-04T10:37:58;21.30;95.30
37050;DHT22;22958;51.232;6.826;2022-07-04T10:51:17;22.60;92.10
37050;DHT22;22958;51.232;6.826;2022-07-04T10:54:02;22.70;92.10
37050;DHT22;22958;51.232;6.826;2022-07-04T10:58:55;22.80;91.60
37050;DHT22;22958;51.232;6.826;2022-07-04T11:01:23;22.90;90.80
37050;DHT22;22958;51.232;6.826;2022-07-04T11:03:49;23.10;90.10
37050;DHT22;22958;51.232;6.826;2022-07-04T11:09:23;23.20;89.70
37050;DHT22;22958;51.232;6.826;2022-07-04T11:11:59;23.10;90.10
37050;DHT22;22958;51.232;6.826;2022-07-04T11:14:45;22.90;88.90
37050;DHT22;22958;51.232;6.826;2022-07-04T11:17:21;23.50;90.80
37050;DHT22;22958;51.232;6.826;2022-07-04T11:19:59;25.00;83.20
37050;DHT22;22958;51.232;6.826;2022-07-04T11:22:24;24.40;80.90
37050;DHT22;22958;51.232;6.826;2022-07-04T11:24:50;24.50;83.10
37050;DHT22;22958;51.232;6.826;2022-07-04T11:27:15;26.30;75.30
37050;DHT22;22958;51.232;6.826;2022-07-04T11:29:51;27.50;65.40
37050;DHT22;22958;51.232;6.826;2022-07-04T11:32:17;26.10;65.30
37050;DHT22;22958;51.232;6.826;2022-07-04T11:34:43;27.40;62.40
37050;DHT22;22958;51.232;6.826;2022-07-04T11:37:09;27.80;58.40
37050;DHT22;22958;51.232;6.826;2022-07-04T11:39:35;28.10;58.10
37050;DHT22;22958;51.232;6.826;2022-07-04T11:42:00;26.50;60.00
37050;DHT22;22958;51.232;6.826;2022-07-04T11:44:45;24.20;65.10
37050;DHT22;22958;51.232;6.826;2022-07-04T11:47:35;24.30;66.40
37050;DHT22;22958;51.232;6.826;2022-07-04T11:50:01;25.80;64.10
37050;DHT22;22958;51.232;6.826;2022-07-04T11:55:03;27.40;59.40
37050;DHT22;22958;51.232;6.826;2022-07-04T11:57:33;28.00;57.40
37050;DHT22;22958;51.232;6.826;2022-07-04T12:00:01;28.80;57.20
37050;DHT22;22958;51.232;6.826;2022-07-04T12:02:31;29.30;52.90
37050;DHT22;22958;51.232;6.826;2022-07-04T12:04:58;29.10;53.40
37050;DHT22;22958;51.232;6.826;2022-07-04T12:07:26;28.40;53.90
37050;DHT22;22958;51.232;6.826;2022-07-04T12:09:53;27.40;54.90
37050;DHT22;22958;51.232;6.826;2022-07-04T12:12:20;27.60;53.80
37050;DHT22;22958;51.232;6.826;2022-07-04T12:14:57;27.10;53.40
37050;DHT22;22958;51.232;6.826;2022-07-04T12:17:32;27.80;54.10
37050;DHT22;22958;51.232;6.826;2022-07-04T12:20:01;28.60;52.90
37050;DHT22;22958;51.232;6.826;2022-07-04T12:22:41;28.60;52.00
37050;DHT22;22958;51.232;6.826;2022-07-04T12:27:59;26.90;52.60
37050;DHT22;22958;51.232;6.826;2022-07-04T12:30:26;27.70;53.70
37050;DHT22;22958;51.232;6.826;2022-07-04T12:32:56;30.60;50.60
37050;DHT22;22958;51.232;6.826;2022-07-04T12:35:47;32.20;48.40
37050;DHT22;22958;51.232;6.826;2022-07-04T12:38:22;32.50;45.30
37050;DHT22;22958;51.232;6.826;2022-07-04T12:40:59;29.50;47.10
37050;DHT22;22958;51.232;6.826;2022-07-04T12:43:43;27.10;50.70
37050;DHT22;22958;51.232;6.826;2022-07-04T12:48:50;25.50;53.10
37050;DHT22;22958;51.232;6.826;2022-07-04T12:51:22;25.50;54.50
37050;DHT22;22958;51.232;6.826;2022-07-04T12:53:49;25.90;53.40
37050;DHT22;22958;51.232;6.826;2022-07-04T12:58:58;28.50;51.30
37050;DHT22;22958;51.232;6.826;2022-07-04T13:01:24;30.70;47.70
37050;DHT22;22958;51.232;6.826;2022-07-04T13:03:51;28.70;48.50
37050;DHT22;22958;51.232;6.826;2022-07-04T13:06:16;28.00;49.30
37050;DHT22;22958;51.232;6.826;2022-07-04T13:08:42;27.00;51.30
37050;DHT22;22958;51.232;6.826;2022-07-04T13:11:08;26.60;51.00
37050;DHT22;22958;51.232;6.826;2022-07-04T13:13:52;25.30;52.70
37050;DHT22;22958;51.232;6.826;2022-07-04T13:16:17;25.10;54.00
37050;DHT22;22958;51.232;6.826;2022-07-04T13:18:43;26.10;53.20
37050;DHT22;22958;51.232;6.826;2022-07-04T13:21:08;26.20;52.30
37050;DHT22;22958;51.232;6.826;2022-07-04T13:23:34;25.60;54.20
37050;DHT22;22958;51.232;6.826;2022-07-04T13:26:00;26.60;52.00
37050;DHT22;22958;51.232;6.826;2022-07-04T13:28:25;26.10;51.90
37050;DHT22;22958;51.232;6.826;2022-07-04T13:30:51;26.10;50.80
37050;DHT22;22958;51.232;6.826;2022-07-04T13:33:17;26.10;52.30
37050;DHT22;22958;51.232;6.826;2022-07-04T13:35:42;25.40;53.10
37050;DHT22;22958;51.232;6.826;2022-07-04T13:38:08;24.80;54.70
37050;DHT22;22958;51.232;6.826;2022-07-04T13:40:33;25.20;54.40
37050;DHT22;22958;51.232;6.826;2022-07-04T13:42:59;25.30;54.50
37050;DHT22;22958;51.232;6.826;2022-07-04T13:45:26;25.40;54.40
37050;DHT22;22958;51.232;6.826;2022-07-04T13:47:52;25.30;54.40
37050;DHT22;22958;51.232;6.826;2022-07-04T13:50:18;25.30;53.70
37050;DHT22;22958;51.232;6.826;2022-07-04T13:52:44;25.50;54.00
37050;DHT22;22958;51.232;6.826;2022-07-04T13:55:09;26.50;53.60
37050;DHT22;22958;51.232;6.826;2022-07-04T13:57:35;28.10;50.50
37050;DHT22;22958;51.232;6.826;2022-07-04T14:00:03;29.20;48.90
37050;DHT22;22958;51.232;6.826;2022-07-04T14:02:29;30.10;47.40
37050;DHT22;22958;51.232;6.826;2022-07-04T14:04:54;29.80;46.90
37050;DHT22;22958;51.232;6.826;2022-07-04T14:07:20;27.60;49.70
37050;DHT22;22958;51.232;6.826;2022-07-04T14:09:46;28.40;49.90
37050;DHT22;22958;51.232;6.826;2022-07-04T14:12:12;27.90;49.90
37050;DHT22;22958;51.232;6.826;2022-07-04T14:14:37;29.00;49.20
37050;DHT22;22958;51.232;6.826;2022-07-04T14:17:03;27.90;49.70
37050;DHT22;22958;51.232;6.826;2022-07-04T14:19:28;28.20;50.30
37050;DHT22;22958;51.232;6.826;2022-07-04T14:21:54;28.30;49.40
37050;DHT22;22958;51.232;6.826;2022-07-04T14:24:19;28.50;48.80
37050;DHT22;22958;51.232;6.826;2022-07-04T14:26:45;29.00;47.50
37050;DHT22;22958;51.232;6.826;2022-07-04T14:29:10;28.40;48.60
37050;DHT22;22958;51.232;6.826;2022-07-04T14:31:36;27.30;49.20
37050;DHT22;22958;51.232;6.826;2022-07-04T14:34:02;27.00;50.80
37050;DHT22;22958;51.232;6.826;2022-07-04T14:36:28;26.40;51.90
37050;DHT22;22958;51.232;6.826;2022-07-04T14:38:53;25.70;52.40
37050;DHT22;22958;51.232;6.826;2022-07-04T14:41:19;25.50;54.10
37050;DHT22;22958;51.232;6.826;2022-07-04T14:43:44;25.30;54.40
37050;DHT22;22958;51.232;6.826;2022-07-04T14:46:10;25.30;54.60
37050;DHT22;22958;51.232;6.826;2022-07-04T14:48:37;25.90;53.70
37050;DHT22;22958;51.232;6.826;2022-07-04T14:51:03;27.20;51.70
37050;DHT22;22958;51.232;6.826;2022-07-04T14:53:29;28.00;49.50
37050;DHT22;22958;51.232;6.826;2022-07-04T14:55:55;28.10;48.80
37050;DHT22;22958;51.232;6.826;2022-07-04T14:58:21;28.60;48.90
37050;DHT22;22958;51.232;6.826;2022-07-04T15:00:47;28.30;48.20
37050;DHT22;22958;51.232;6.826;2022-07-04T15:03:13;28.10;47.80
37050;DHT22;22958;51.232;6.826;2022-07-04T15:05:39;27.80;48.40
37050;DHT22;22958;51.232;6.826;2022-07-04T15:08:05;28.10;49.00
37050;DHT22;22958;51.232;6.826;2022-07-04T15:10:30;28.50;48.20
37050;DHT22;22958;51.232;6.826;2022-07-04T15:12:56;28.70;46.70
37050;DHT22;22958;51.232;6.826;2022-07-04T15:15:22;27.70;47.70
37050;DHT22;22958;51.232;6.826;2022-07-04T15:17:47;27.10;49.50
37050;DHT22;22958;51.232;6.826;2022-07-04T15:20:13;26.80;49.50
37050;DHT22;22958;51.232;6.826;2022-07-04T15:22:57;27.00;49.20
37050;DHT22;22958;51.232;6.826;2022-07-04T15:25:42;27.10;49.70
37050;DHT22;22958;51.232;6.826;2022-07-04T15:28:07;27.40;49.60
37050;DHT22;22958;51.232;6.826;2022-07-04T15:30:33;28.50;48.40
37050;DHT22;22958;51.232;6.826;2022-07-04T15:32:59;27.90;47.80
37050;DHT22;22958;51.232;6.826;2022-07-04T15:35:24;27.40;48.50
37050;DHT22;22958;51.232;6.826;2022-07-04T15:37:50;26.60;49.90
37050;DHT22;22958;51.232;6.826;2022-07-04T15:40:17;27.40;50.00
37050;DHT22;22958;51.232;6.826;2022-07-04T15:42:42;27.60;49.20
37050;DHT22;22958;51.232;6.826;2022-07-04T15:45:08;29.10;47.50
37050;DHT22;22958;51.232;6.826;2022-07-04T15:47:34;29.90;46.70
37050;DHT22;22958;51.232;6.826;2022-07-04T15:50:00;29.70;46.40
37050;DHT22;22958;51.232;6.826;2022-07-04T15:52:26;28.00;47.90
37050;DHT22;22958;51.232;6.826;2022-07-04T15:54:53;28.70;47.90
37050;DHT22;22958;51.232;6.826;2022-07-04T15:57:19;29.90;47.40
37050;DHT22;22958;51.232;6.826;2022-07-04T15:59:44;30.00;45.00
37050;DHT22;22958;51.232;6.826;2022-07-04T16:02:10;28.50;47.10
37050;DHT22;22958;51.232;6.826;2022-07-04T16:04:35;28.40;47.60